sensor_id;sensor_type;location;lat;lon;timestamp;temperature;humidity
54898;DHT22;40800;52.704;6.398;2024-02-04T00:00:04;12.20;99.90
54898;DHT22;40800;52.704;6.398;2024-02-04T00:02:30;12.10;99.90
54898;DHT22;40800;52.704;6.398;2024-02-04T00:04:56;11.40;99.90
54898;DHT22;40800;52.704;6.398;2024-02-04T00:07:21;12.20;99.90
54898;DHT22;40800;52.704;6.398;2024-02-04T00:09:47;11.90;99.90
54898;DHT22;40800;52.704;6.398;2024-02-04T00:12:13;12.00;99.90
54898;DHT22;40800;52.704;6.398;2024-02-04T00:14:38;11.20;99.90
54898;DHT22;40800;52.704;6.398;2024-02-04T00:17:04;11.70;99.90
54898;DHT22;40800;52.704;6.398;2024-02-04T00:19:29;12.00;99.90
54898;DHT22;40800;52.704;6.398;2024-02-04T00:21:55;11.70;99.90
54898;DHT22;40800;52.704;6.398;2024-02-04T00:24:21;11.70;99.90
54898;DHT22;40800;52.704;6.398;2024-02-04T00:26:47;11.10;99.90
54898;DHT22;40800;52.704;6.398;2024-02-04T00:29:12;11.40;99.90
54898;DHT22;40800;52.704;6.398;2024-02-04T00:31:38;11.60;99.90
54898;DHT22;40800;52.704;6.398;2024-02-04T00:34:04;11.70;99.90
54898;DHT22;40800;52.704;6.398;2024-02-04T00:36:30;11.30;99.90
54898;DHT22;40800;52.704;6.398;2024-02-04T00:38:56;10.90;99.90
54898;DHT22;40800;52.704;6.398;2024-02-04T00:41:22;11.00;99.90
54898;DHT22;40800;52.704;6.398;2024-02-04T00:43:47;10.80;99.90
54898;DHT22;40800;52.704;6.398;2024-02-04T00:46:13;10.70;99.90
54898;DHT22;40800;52.704;6.398;2024-02-04T00:48:39;10.70;99.90
54898;DHT22;40800;52.704;6.398;2024-02-04T00:51:06;11.30;99.90
54898;DHT22;40800;52.704;6.398;2024-02-04T00:53:32;10.50;99.90
54898;DHT22;40800;52.704;6.398;2024-02-04T00:56:04;11.20;99.90
54898;DHT22;40800;52.704;6.398;2024-02-04T00:58:30;10.60;99.90
54898;DHT22;40800;52.704;6.398;2024-02-04T01:00:55;11.10;99.90
54898;DHT22;40800;52.704;6.398;2024-02-04T01:03:21;10.50;99.90
54898;DHT22;40800;52.704;6.398;2024-02-04T01:05:46;10.20;99.90
54898;DHT22;40800;52.704;6.398;2024-02-04T01:08:12;10.80;99.90
54898;DHT22;40800;52.704;6.398;2024-02-04T01:10:38;10.60;99.90
54898;DHT22;40800;52.704;6.398;2024-02-04T01:13:04;10.30;99.90
54898;DHT22;40800;52.704;6.398;2024-02-04T01:15:29;10.00;99.90
54898;DHT22;40800;52.704;6.398;2024-02-04T01:17:55;10.80;99.90
54898;DHT22;40800;52.704;6.398;2024-02-04T01:20:21;10.30;99.90
54898;DHT22;40800;52.704;6.398;2024-02-04T01:22:46;10.40;99.90
54898;DHT22;40800;52.704;6.398;2024-02-04T01:25:12;10.40;99.90
54898;DHT22;40800;52.704;6.398;2024-02-04T01:27:38;11.00;99.90
54898;DHT22;40800;52.704;6.398;2024-02-04T01:30:04;10.50;99.90
54898;DHT22;40800;52.704;6.398;2024-02-04T01:32:30;10.50;99.90
54898;DHT22;40800;52.704;6.398;2024-02-04T01:34:55;11.00;99.90
54898;DHT22;40800;52.704;6.398;2024-02-04T01:37:21;10.70;99.90
54898;DHT22;40800;52.704;6.398;2024-02-04T01:39:46;10.60;99.90
54898;DHT22;40800;52.704;6.398;2024-02-04T01:42:12;11.10;99.90
54898;DHT22;40800;52.704;6.398;2024-02-04T01:44:37;11.20;99.90
54898;DHT22;40800;52.704;6.398;2024-02-04T01:47:03;10.50;99.90
54898;DHT22;40800;52.704;6.398;2024-02-04T01:49:29;10.90;99.90
54898;DHT22;40800;52.704;6.398;2024-02-04T01:51:55;10.70;99.90
54898;DHT22;40800;52.704;6.398;2024-02-04T01:54:24;11.50;99.90
54898;DHT22;40800;52.704;6.398;2024-02-04T01:56:51;10.60;99.90
54898;DHT22;40800;52.704;6.398;2024-02-04T01:59:19;10.60;99.90
54898;DHT22;40800;52.704;6.398;2024-02-04T02:01:45;11.30;99.90
54898;DHT22;40800;52.704;6.398;2024-02-04T02:04:12;11.20;99.90
54898;DHT22;40800;52.704;6.398;2024-02-04T02:06:39;11.60;99.90
54898;DHT22;40800;52.704;6.398;2024-02-04T02:09:07;10.40;99.90
54898;DHT22;40800;52.704;6.398;2024-02-04T02:11:46;10.80;99.90
54898;DHT22;40800;52.704;6.398;2024-02-04T02:14:14;10.50;99.90
54898;DHT22;40800;52.704;6.398;2024-02-04T02:16:44;10.90;99.90
54898;DHT22;40800;52.704;6.398;2024-02-04T02:19:39;11.20;99.90
54898;DHT22;40800;52.704;6.398;2024-02-04T02:22:26;10.50;99.90
54898;DHT22;40800;52.704;6.398;2024-02-04T02:24:52;11.10;99.90
54898;DHT22;40800;52.704;6.398;2024-02-04T02:27:18;10.30;99.90
54898;DHT22;40800;52.704;6.398;2024-02-04T02:29:44;11.00;99.90
54898;DHT22;40800;52.704;6.398;2024-02-04T02:32:10;10.30;99.90
54898;DHT22;40800;52.704;6.398;2024-02-04T02:34:35;10.50;99.90
54898;DHT22;40800;52.704;6.398;2024-02-04T02:40:08;10.10;99.90
54898;DHT22;40800;52.704;6.398;2024-02-04T02:42:36;10.50;99.90
54898;DHT22;40800;52.704;6.398;2024-02-04T02:45:03;10.20;99.90
54898;DHT22;40800;52.704;6.398;2024-02-04T02:47:29;10.00;99.90
54898;DHT22;40800;52.704;6.398;2024-02-04T02:49:55;9.70;99.90
54898;DHT22;40800;52.704;6.398;2024-02-04T02:52:21;9.80;99.90
54898;DHT22;40800;52.704;6.398;2024-02-04T02:54:47;10.40;99.90
54898;DHT22;40800;52.704;6.398;2024-02-04T02:57:12;9.90;99.90
54898;DHT22;40800;52.704;6.398;2024-02-04T02:59:38;9.50;99.90
54898;DHT22;40800;52.704;6.398;2024-02-04T03:02:03;10.10;99.90
54898;DHT22;40800;52.704;6.398;2024-02-04T03:04:29;10.20;99.90
54898;DHT22;40800;52.704;6.398;2024-02-04T03:06:55;10.00;99.90
54898;DHT22;40800;52.704;6.398;2024-02-04T03:09:20;9.90;99.90
54898;DHT22;40800;52.704;6.398;2024-02-04T03:11:46;9.50;99.90
54898;DHT22;40800;52.704;6.398;2024-02-04T03:14:15;9.30;99.90
54898;DHT22;40800;52.704;6.398;2024-02-04T03:16:44;9.60;99.90
54898;DHT22;40800;52.704;6.398;2024-02-04T03:19:10;9.40;99.90
54898;DHT22;40800;52.704;6.398;2024-02-04T03:21:35;9.40;99.90
54898;DHT22;40800;52.704;6.398;2024-02-04T03:24:01;9.80;99.90
54898;DHT22;40800;52.704;6.398;2024-02-04T03:26:26;10.10;99.90
54898;DHT22;40800;52.704;6.398;2024-02-04T03:28:52;9.40;99.90
54898;DHT22;40800;52.704;6.398;2024-02-04T03:31:21;9.90;99.90
54898;DHT22;40800;52.704;6.398;2024-02-04T03:33:47;9.20;99.90
54898;DHT22;40800;52.704;6.398;2024-02-04T03:36:21;9.40;99.90
54898;DHT22;40800;52.704;6.398;2024-02-04T03:38:48;9.80;99.90
54898;DHT22;40800;52.704;6.398;2024-02-04T03:41:13;9.20;99.90
54898;DHT22;40800;52.704;6.398;2024-02-04T03:43:39;9.70;99.90
54898;DHT22;40800;52.704;6.398;2024-02-04T03:46:04;9.30;99.90
54898;DHT22;40800;52.704;6.398;2024-02-04T03:48:30;9.00;99.90
54898;DHT22;40800;52.704;6.398;2024-02-04T03:50:55;9.10;99.90
54898;DHT22;40800;52.704;6.398;2024-02-04T03:53:21;9.30;99.90
54898;DHT22;40800;52.704;6.398;2024-02-04T03:55:49;9.40;99.90
54898;DHT22;40800;52.704;6.398;2024-02-04T03:58:14;9.20;99.90
54898;DHT22;40800;52.704;6.398;2024-02-04T04:00:40;9.30;99.90
54898;DHT22;40800;52.704;6.398;2024-02-04T04:03:05;9.40;99.90
54898;DHT22;40800;52.704;6.398;2024-02-04T04:05:31;9.10;99.90
54898;DHT22;40800;52.704;6.398;2024-02-04T04:07:57;9.20;99.90
54898;DHT22;40800;52.704;6.398;2024-02-04T04:10:22;9.60;99.90
54898;DHT22;40800;52.704;6.398;2024-02-04T04:12:48;9.30;99.90
54898;DHT22;40800;52.704;6.398;2024-02-04T04:15:13;9.50;99.90
54898;DHT22;40800;52.704;6.398;2024-02-04T04:17:39;9.50;99.90
54898;DHT22;40800;52.704;6.398;2024-02-04T04:20:07;9.30;99.90
54898;DHT22;40800;52.704;6.398;2024-02-04T04:22:33;9.50;99.90
54898;DHT22;40800;52.704;6.398;2024-02-04T04:24:58;9.50;99.90
54898;DHT22;40800;52.704;6.398;2024-02-04T04:27:24;9.30;99.90
54898;DHT22;40800;52.704;6.398;2024-02-04T04:29:49;9.60;99.90
54898;DHT22;40800;52.704;6.398;2024-02-04T04:32:15;9.60;99.90
54898;DHT22;40800;52.704;6.398;2024-02-04T04:34:41;9.30;99.90
54898;DHT22;40800;52.704;6.398;2024-02-04T04:37:06;9.40;99.90
54898;DHT22;40800;52.704;6.398;2024-02-04T04:39:32;9.60;99.90
54898;DHT22;40800;52.704;6.398;2024-02-04T04:41:57;9.60;99.90
54898;DHT22;40800;52.704;6.398;2024-02-04T04:44:23;9.30;99.90
54898;DHT22;40800;52.704;6.398;2024-02-04T04:46:49;9.50;99.90
54898;DHT22;40800;52.704;6.398;2024-02-04T04:49:14;9.70;99.90
54898;DHT22;40800;52.704;6.398;2024-02-04T04:51:44;9.40;99.90
54898;DHT22;40800;52.704;6.398;2024-02-04T04:54:10;9.70;99.90
54898;DHT22;40800;52.704;6.398;2024-02-04T04:56:40;9.50;99.90
54898;DHT22;40800;52.704;6.398;2024-02-04T04:59:07;9.60;99.90
54898;DHT22;40800;52.704;6.398;2024-02-04T05:01:32;9.40;99.90
54898;DHT22;40800;52.704;6.398;2024-02-04T05:03:58;9.70;99.90
54898;DHT22;40800;52.704;6.398;2024-02-04T05:06:23;9.50;99.90
54898;DHT22;40800;52.704;6.398;2024-02-04T05:08:49;9.80;99.90
54898;DHT22;40800;52.704;6.398;2024-02-04T05:11:15;9.50;99.90
54898;DHT22;40800;52.704;6.398;2024-02-04T05:13:40;9.90;99.90
54898;DHT22;40800;52.704;6.398;2024-02-04T05:16:06;9.60;99.90
54898;DHT22;40800;52.704;6.398;2024-02-04T05:18:31;9.80;99.90
54898;DHT22;40800;52.704;6.398;2024-02-04T05:20:57;9.60;99.90
54898;DHT22;40800;52.704;6.398;2024-02-04T05:23:23;9.70;99.90
54898;DHT22;40800;52.704;6.398;2024-02-04T05:25:48;9.70;99.90
54898;DHT22;40800;52.704;6.398;2024-02-04T05:28:14;9.80;99.90
54898;DHT22;40800;52.704;6.398;2024-02-04T05:30:39;9.60;99.90
54898;DHT22;40800;52.704;6.398;2024-02-04T05:33:05;9.80;99.90
54898;DHT22;40800;52.704;6.398;2024-02-04T05:35:31;9.60;99.90
54898;DHT22;40800;52.704;6.398;2024-02-04T05:37:57;9.80;99.90
54898;DHT22;40800;52.704;6.398;2024-02-04T05:40:22;9.80;99.90
54898;DHT22;40800;52.704;6.398;2024-02-04T05:42:48;9.80;99.90
54898;DHT22;40800;52.704;6.398;2024-02-04T05:45:14;9.70;99.90
54898;DHT22;40800;52.704;6.398;2024-02-04T05:47:39;9.80;99.90
54898;DHT22;40800;52.704;6.398;2024-02-04T05:50:05;9.70;99.90
54898;DHT22;40800;52.704;6.398;2024-02-04T05:52:31;9.70;99.90
54898;DHT22;40800;52.704;6.398;2024-02-04T05:54:57;9.70;99.90
54898;DHT22;40800;52.704;6.398;2024-02-04T05:57:22;9.70;99.90
54898;DHT22;40800;52.704;6.398;2024-02-04T05:59:49;9.90;99.90
54898;DHT22;40800;52.704;6.398;2024-02-04T06:02:15;9.80;99.90
54898;DHT22;40800;52.704;6.398;2024-02-04T06:04:40;9.70;99.90
54898;DHT22;40800;52.704;6.398;2024-02-04T06:07:06;9.80;99.90
54898;DHT22;40800;52.704;6.398;2024-02-04T06:09:35;9.90;99.90
54898;DHT22;40800;52.704;6.398;2024-02-04T06:12:01;9.90;99.90
54898;DHT22;40800;52.704;6.398;2024-02-04T06:14:26;9.70;99.90
54898;DHT22;40800;52.704;6.398;2024-02-04T06:16:52;9.90;99.90
54898;DHT22;40800;52.704;6.398;2024-02-04T06:19:18;9.90;99.90
54898;DHT22;40800;52.704;6.398;2024-02-04T06:21:43;9.80;99.90
54898;DHT22;40800;52.704;6.398;2024-02-04T06:24:09;10.00;99.90
54898;DHT22;40800;52.704;6.398;2024-02-04T06:26:37;9.90;99.90
54898;DHT22;40800;52.704;6.398;2024-02-04T06:29:03;9.90;99.90
54898;DHT22;40800;52.704;6.398;2024-02-04T06:31:29;9.90;99.90
54898;DHT22;40800;52.704;6.398;2024-02-04T06:33:54;9.80;99.90
54898;DHT22;40800;52.704;6.398;2024-02-04T06:36:20;9.80;99.90
54898;DHT22;40800;52.704;6.398;2024-02-04T06:38:45;9.80;99.90
54898;DHT22;40800;52.704;6.398;2024-02-04T06:41:11;9.80;99.90
54898;DHT22;40800;52.704;6.398;2024-02-04T06:43:39;9.80;99.90
54898;DHT22;40800;52.704;6.398;2024-02-04T06:46:05;9.90;99.90
54898;DHT22;40800;52.704;6.398;2024-02-04T06:48:30;10.00;99.90
54898;DHT22;40800;52.704;6.398;2024-02-04T06:50:56;9.90;99.90
54898;DHT22;40800;52.704;6.398;2024-02-04T06:53:21;9.90;99.90
54898;DHT22;40800;52.704;6.398;2024-02-04T06:55:47;9.90;99.90
54898;DHT22;40800;52.704;6.398;2024-02-04T06:58:12;10.00;99.90
54898;DHT22;40800;52.704;6.398;2024-02-04T07:00:38;9.80;99.90
54898;DHT22;40800;52.704;6.398;2024-02-04T07:03:04;9.90;99.90
54898;DHT22;40800;52.704;6.398;2024-02-04T07:05:29;9.90;99.90
54898;DHT22;40800;52.704;6.398;2024-02-04T07:07:56;9.90;99.90
54898;DHT22;40800;52.704;6.398;2024-02-04T07:10:22;9.90;99.90
54898;DHT22;40800;52.704;6.398;2024-02-04T07:12:47;9.80;99.90
54898;DHT22;40800;52.704;6.398;2024-02-04T07:15:13;10.00;99.90
54898;DHT22;40800;52.704;6.398;2024-02-04T07:17:38;10.00;99.90
54898;DHT22;40800;52.704;6.398;2024-02-04T07:20:04;9.90;99.90
54898;DHT22;40800;52.704;6.398;2024-02-04T07:22:31;9.90;99.90
54898;DHT22;40800;52.704;6.398;2024-02-04T07:24:56;9.90;99.90
54898;DHT22;40800;52.704;6.398;2024-02-04T07:27:22;10.00;99.90
54898;DHT22;40800;52.704;6.398;2024-02-04T07:29:48;10.00;99.90
54898;DHT22;40800;52.704;6.398;2024-02-04T07:32:16;10.00;99.90
54898;DHT22;40800;52.704;6.398;2024-02-04T07:34:41;10.00;99.90
54898;DHT22;40800;52.704;6.398;2024-02-04T07:37:07;10.00;99.90
54898;DHT22;40800;52.704;6.398;2024-02-04T07:39:33;10.00;99.90
54898;DHT22;40800;52.704;6.398;2024-02-04T07:41:58;10.10;99.90
54898;DHT22;40800;52.704;6.398;2024-02-04T07:44:27;10.20;99.90
54898;DHT22;40800;52.704;6.398;2024-02-04T07:46:53;10.20;99.90
54898;DHT22;40800;52.704;6.398;2024-02-04T07:49:19;10.20;99.90
54898;DHT22;40800;52.704;6.398;2024-02-04T07:51:44;10.20;99.90
54898;DHT22;40800;52.704;6.398;2024-02-04T07:54:10;10.30;99.90
54898;DHT22;40800;52.704;6.398;2024-02-04T07:56:36;10.20;99.90
54898;DHT22;40800;52.704;6.398;2024-02-04T07:59:02;10.20;99.90
54898;DHT22;40800;52.704;6.398;2024-02-04T08:01:29;10.30;99.90
54898;DHT22;40800;52.704;6.398;2024-02-04T08:03:54;10.40;99.90
54898;DHT22;40800;52.704;6.398;2024-02-04T08:06:20;10.30;99.90
54898;DHT22;40800;52.704;6.398;2024-02-04T08:08:45;10.30;99.90
54898;DHT22;40800;52.704;6.398;2024-02-04T08:11:20;10.30;99.90
54898;DHT22;40800;52.704;6.398;2024-02-04T08:13:46;10.40;99.90
54898;DHT22;40800;52.704;6.398;2024-02-04T08:16:12;10.50;99.90
54898;DHT22;40800;52.704;6.398;2024-02-04T08:18:39;10.50;99.90
54898;DHT22;40800;52.704;6.398;2024-02-04T08:21:05;10.50;99.90
54898;DHT22;40800;52.704;6.398;2024-02-04T08:23:30;10.50;99.90
54898;DHT22;40800;52.704;6.398;2024-02-04T08:25:56;10.60;99.90
54898;DHT22;40800;52.704;6.398;2024-02-04T08:28:24;10.60;99.90
54898;DHT22;40800;52.704;6.398;2024-02-04T08:30:50;10.60;99.90
54898;DHT22;40800;52.704;6.398;2024-02-04T08:33:16;10.80;99.90
54898;DHT22;40800;52.704;6.398;2024-02-04T08:35:43;10.80;99.90
54898;DHT22;40800;52.704;6.398;2024-02-04T08:38:08;10.90;99.90
54898;DHT22;40800;52.704;6.398;2024-02-04T08:40:34;10.90;99.90
54898;DHT22;40800;52.704;6.398;2024-02-04T08:42:59;11.00;99.90
54898;DHT22;40800;52.704;6.398;2024-02-04T08:45:25;11.00;99.90
54898;DHT22;40800;52.704;6.398;2024-02-04T08:47:50;11.00;99.90
54898;DHT22;40800;52.704;6.398;2024-02-04T08:50:16;10.90;99.90
54898;DHT22;40800;52.704;6.398;2024-02-04T08:52:42;11.00;99.90
54898;DHT22;40800;52.704;6.398;2024-02-04T08:55:07;10.90;99.90
54898;DHT22;40800;52.704;6.398;2024-02-04T08:57:34;11.00;99.90
54898;DHT22;40800;52.704;6.398;2024-02-04T09:00:00;11.10;99.90
54898;DHT22;40800;52.704;6.398;2024-02-04T09:02:26;11.10;99.90
54898;DHT22;40800;52.704;6.398;2024-02-04T09:04:51;11.10;99.90
54898;DHT22;40800;52.704;6.398;2024-02-04T09:07:17;11.10;99.90
54898;DHT22;40800;52.704;6.398;2024-02-04T09:09:42;11.00;99.90
54898;DHT22;40800;52.704;6.398;2024-02-04T09:12:09;11.10;99.90
54898;DHT22;40800;52.704;6.398;2024-02-04T09:14:35;11.00;99.90
54898;DHT22;40800;52.704;6.398;2024-02-04T09:17:04;11.00;99.90
54898;DHT22;40800;52.704;6.398;2024-02-04T09:19:30;11.00;99.90
54898;DHT22;40800;52.704;6.398;2024-02-04T09:21:59;11.00;99.90
54898;DHT22;40800;52.704;6.398;2024-02-04T09:24:29;11.00;99.90
54898;DHT22;40800;52.704;6.398;2024-02-04T09:26:55;11.10;99.90
54898;DHT22;40800;52.704;6.398;2024-02-04T09:29:20;11.10;99.90
54898;DHT22;40800;52.704;6.398;2024-02-04T09:31:46;11.10;99.90
54898;DHT22;40800;52.704;6.398;2024-02-04T09:34:12;11.20;99.90
54898;DHT22;40800;52.704;6.398;2024-02-04T09:36:37;11.10;99.90
54898;DHT22;40800;52.704;6.398;2024-02-04T09:39:03;11.20;99.90
54898;DHT22;40800;52.704;6.398;2024-02-04T09:41:29;11.20;99.90
54898;DHT22;40800;52.704;6.398;2024-02-04T09:43:55;11.30;99.90
54898;DHT22;40800;52.704;6.398;2024-02-04T09:46:21;11.20;99.90
54898;DHT22;40800;52.704;6.398;2024-02-04T09:48:47;11.30;99.90
54898;DHT22;40800;52.704;6.398;2024-02-04T09:51:14;11.20;99.90
54898;DHT22;40800;52.704;6.398;2024-02-04T09:53:44;11.20;99.90
54898;DHT22;40800;52.704;6.398;2024-02-04T09:56:12;11.30;99.90
54898;DHT22;40800;52.704;6.398;2024-02-04T09:58:38;11.40;99.90
54898;DHT22;40800;52.704;6.398;2024-02-04T10:01:06;11.40;99.90
54898;DHT22;40800;52.704;6.398;2024-02-04T10:03:35;11.40;99.90
54898;DHT22;40800;52.704;6.398;2024-02-04T10:06:01;11.40;99.90
54898;DHT22;40800;52.704;6.398;2024-02-04T10:08:26;11.30;99.90
54898;DHT22;40800;52.704;6.398;2024-02-04T10:10:52;11.30;99.90
54898;DHT22;40800;52.704;6.398;2024-02-04T10:13:19;11.30;99.90
54898;DHT22;40800;52.704;6.398;2024-02-04T10:15:47;11.40;99.90
54898;DHT22;40800;52.704;6.398;2024-02-04T10:18:13;11.40;99.90
54898;DHT22;40800;52.704;6.398;2024-02-04T10:20:39;11.40;99.90
54898;DHT22;40800;52.704;6.398;2024-02-04T10:23:07;11.40;99.90
54898;DHT22;40800;52.704;6.398;2024-02-04T10:25:33;11.40;99.90
54898;DHT22;40800;52.704;6.398;2024-02-04T10:27:59;11.40;99.90
54898;DHT22;40800;52.704;6.398;2024-02-04T10:30:24;11.40;99.90
54898;DHT22;40800;52.704;6.398;2024-02-04T10:32:51;11.40;99.90
54898;DHT22;40800;52.704;6.398;2024-02-04T10:35:17;11.40;99.90
54898;DHT22;40800;52.704;6.398;2024-02-04T10:37:45;11.40;99.90
54898;DHT22;40800;52.704;6.398;2024-02-04T10:40:11;11.30;99.90
54898;DHT22;40800;52.704;6.398;2024-02-04T10:42:38;11.30;99.90
54898;DHT22;40800;52.704;6.398;2024-02-04T10:45:08;11.30;99.90
54898;DHT22;40800;52.704;6.398;2024-02-04T10:47:37;11.30;99.90
54898;DHT22;40800;52.704;6.398;2024-02-04T10:50:04;11.20;99.90
54898;DHT22;40800;52.704;6.398;2024-02-04T10:52:37;11.20;99.90
54898;DHT22;40800;52.704;6.398;2024-02-04T10:55:10;11.30;99.90
54898;DHT22;40800;52.704;6.398;2024-02-04T10:57:38;11.40;99.90
54898;DHT22;40800;52.704;6.398;2024-02-04T11:00:04;11.50;99.90
54898;DHT22;40800;52.704;6.398;2024-02-04T11:02:35;11.50;99.90
54898;DHT22;40800;52.704;6.398;2024-02-04T11:05:02;11.60;99.90
54898;DHT22;40800;52.704;6.398;2024-02-04T11:07:31;11.80;99.90
54898;DHT22;40800;52.704;6.398;2024-02-04T11:09:58;11.90;99.90
54898;DHT22;40800;52.704;6.398;2024-02-04T11:12:27;11.90;99.90
54898;DHT22;40800;52.704;6.398;2024-02-04T11:14:55;12.00;99.90
54898;DHT22;40800;52.704;6.398;2024-02-04T11:23:14;11.80;99.90
54898;DHT22;40800;52.704;6.398;2024-02-04T11:25:51;11.70;99.90
54898;DHT22;40800;52.704;6.398;2024-02-04T11:28:18;11.70;99.90
54898;DHT22;40800;52.704;6.398;2024-02-04T11:30:45;11.60;99.90
54898;DHT22;40800;52.704;6.398;2024-02-04T11:33:12;11.70;99.90
54898;DHT22;40800;52.704;6.398;2024-02-04T11:35:38;11.60;99.90
54898;DHT22;40800;52.704;6.398;2024-02-04T11:38:04;11.70;99.90
54898;DHT22;40800;52.704;6.398;2024-02-04T11:40:37;11.70;99.90
54898;DHT22;40800;52.704;6.398;2024-02-04T11:43:07;11.80;99.90
54898;DHT22;40800;52.704;6.398;2024-02-04T11:45:36;11.80;99.90
54898;DHT22;40800;52.704;6.398;2024-02-04T11:48:06;11.80;99.90
54898;DHT22;40800;52.704;6.398;2024-02-04T11:50:31;11.70;99.90
54898;DHT22;40800;52.704;6.398;2024-02-04T11:53:08;11.80;99.90
54898;DHT22;40800;52.704;6.398;2024-02-04T11:55:35;11.80;99.90
54898;DHT22;40800;52.704;6.398;2024-02-04T11:58:03;11.90;99.90
54898;DHT22;40800;52.704;6.398;2024-02-04T12:00:29;11.80;99.90
54898;DHT22;40800;52.704;6.398;2024-02-04T12:03:05;11.80;99.90
54898;DHT22;40800;52.704;6.398;2024-02-04T12:05:35;11.90;99.90
54898;DHT22;40800;52.704;6.398;2024-02-04T12:08:05;11.80;99.90
54898;DHT22;40800;52.704;6.398;2024-02-04T12:10:32;11.80;99.90
54898;DHT22;40800;52.704;6.398;2024-02-04T12:13:07;11.80;99.90
54898;DHT22;40800;52.704;6.398;2024-02-04T12:15:36;11.80;99.90
54898;DHT22;40800;52.704;6.398;2024-02-04T12:18:09;11.80;99.90
54898;DHT22;40800;52.704;6.398;2024-02-04T12:20:36;11.70;99.90
54898;DHT22;40800;52.704;6.398;2024-02-04T12:23:06;11.80;99.90
54898;DHT22;40800;52.704;6.398;2024-02-04T12:25:32;11.70;99.90
54898;DHT22;40800;52.704;6.398;2024-02-04T12:28:02;11.70;99.90
54898;DHT22;40800;52.704;6.398;2024-02-04T12:30:29;11.70;99.90
54898;DHT22;40800;52.704;6.398;2024-02-04T12:32:58;11.80;99.90
54898;DHT22;40800;52.704;6.398;2024-02-04T12:35:25;11.80;99.90
54898;DHT22;40800;52.704;6.398;2024-02-04T12:37:54;11.80;99.90
54898;DHT22;40800;52.704;6.398;2024-02-04T12:40:30;11.80;99.90
54898;DHT22;40800;52.704;6.398;2024-02-04T12:43:00;11.80;99.90
54898;DHT22;40800;52.704;6.398;2024-02-04T12:45:27;11.80;99.90
54898;DHT22;40800;52.704;6.398;2024-02-04T12:47:56;11.90;99.90
54898;DHT22;40800;52.704;6.398;2024-02-04T12:50:23;11.80;99.90
54898;DHT22;40800;52.704;6.398;2024-02-04T12:53:06;11.80;99.90
54898;DHT22;40800;52.704;6.398;2024-02-04T12:55:32;11.80;99.90
54898;DHT22;40800;52.704;6.398;2024-02-04T12:58:05;11.90;99.90
54898;DHT22;40800;52.704;6.398;2024-02-04T13:00:34;12.20;99.90
54898;DHT22;40800;52.704;6.398;2024-02-04T13:03:00;11.90;99.90
54898;DHT22;40800;52.704;6.398;2024-02-04T13:05:26;12.20;99.90
54898;DHT22;40800;52.704;6.398;2024-02-04T13:07:55;11.90;99.90
54898;DHT22;40800;52.704;6.398;2024-02-04T13:10:25;11.90;99.90
54898;DHT22;40800;52.704;6.398;2024-02-04T13:12:58;11.90;99.90
54898;DHT22;40800;52.704;6.398;2024-02-04T13:15:29;11.90;99.90
54898;DHT22;40800;52.704;6.398;2024-02-04T13:17:54;11.80;99.90
54898;DHT22;40800;52.704;6.398;2024-02-04T13:20:21;11.90;99.90
54898;DHT22;40800;52.704;6.398;2024-02-04T13:22:46;11.90;99.90
54898;DHT22;40800;52.704;6.398;2024-02-04T13:25:12;11.90;99.90
54898;DHT22;40800;52.704;6.398;2024-02-04T13:27:38;11.90;99.90
54898;DHT22;40800;52.704;6.398;2024-02-04T13:30:04;11.90;99.90
54898;DHT22;40800;52.704;6.398;2024-02-04T13:32:31;11.90;99.90
54898;DHT22;40800;52.704;6.398;2024-02-04T13:34:57;11.90;99.90
54898;DHT22;40800;52.704;6.398;2024-02-04T13:37:22;12.00;99.90
54898;DHT22;40800;52.704;6.398;2024-02-04T13:39:48;12.00;99.90
54898;DHT22;40800;52.704;6.398;2024-02-04T13:42:14;12.00;99.90
54898;DHT22;40800;52.704;6.398;2024-02-04T13:44:39;12.00;99.90
54898;DHT22;40800;52.704;6.398;2024-02-04T13:47:05;12.00;99.90
54898;DHT22;40800;52.704;6.398;2024-02-04T13:49:31;12.00;99.90
54898;DHT22;40800;52.704;6.398;2024-02-04T13:51:56;12.00;99.90
54898;DHT22;40800;52.704;6.398;2024-02-04T13:54:22;11.90;99.90
54898;DHT22;40800;52.704;6.398;2024-02-04T13:56:47;11.90;99.90
54898;DHT22;40800;52.704;6.398;2024-02-04T13:59:13;11.90;99.90
54898;DHT22;40800;52.704;6.398;2024-02-04T14:01:39;11.90;99.90
54898;DHT22;40800;52.704;6.398;2024-02-04T14:04:04;11.80;99.90
54898;DHT22;40800;52.704;6.398;2024-02-04T14:06:30;11.90;99.90
54898;DHT22;40800;52.704;6.398;2024-02-04T14:08:55;11.80;99.90
54898;DHT22;40800;52.704;6.398;2024-02-04T14:11:21;11.90;99.90
54898;DHT22;40800;52.704;6.398;2024-02-04T14:13:47;11.90;99.90
54898;DHT22;40800;52.704;6.398;2024-02-04T14:16:13;11.90;99.90
54898;DHT22;40800;52.704;6.398;2024-02-04T14:18:38;11.80;99.90
54898;DHT22;40800;52.704;6.398;2024-02-04T14:21:05;11.70;99.90
54898;DHT22;40800;52.704;6.398;2024-02-04T14:23:32;11.80;99.90
54898;DHT22;40800;52.704;6.398;2024-02-04T14:25:58;11.60;99.90
54898;DHT22;40800;52.704;6.398;2024-02-04T14:28:23;11.70;99.90
54898;DHT22;40800;52.704;6.398;2024-02-04T14:30:49;11.70;99.90
54898;DHT22;40800;52.704;6.398;2024-02-04T14:33:14;11.50;99.90
54898;DHT22;40800;52.704;6.398;2024-02-04T14:35:40;11.50;99.90
54898;DHT22;40800;52.704;6.398;2024-02-04T14:38:06;11.50;99.90
54898;DHT22;40800;52.704;6.398;2024-02-04T14:40:32;11.50;99.90
54898;DHT22;40800;52.704;6.398;2024-02-04T14:42:57;11.60;99.90
54898;DHT22;40800;52.704;6.398;2024-02-04T14:45:23;11.40;99.90
54898;DHT22;40800;52.704;6.398;2024-02-04T14:47:49;11.60;99.90
54898;DHT22;40800;52.704;6.398;2024-02-04T14:50:14;11.70;99.90
54898;DHT22;40800;52.704;6.398;2024-02-04T14:52:42;11.70;99.90
54898;DHT22;40800;52.704;6.398;2024-02-04T14:55:07;11.70;99.90
54898;DHT22;40800;52.704;6.398;2024-02-04T14:57:35;11.80;99.90
54898;DHT22;40800;52.704;6.398;2024-02-04T15:00:00;11.40;99.90
54898;DHT22;40800;52.704;6.398;2024-02-04T15:02:26;11.40;99.90
54898;DHT22;40800;52.704;6.398;2024-02-04T15:04:52;11.50;99.90
54898;DHT22;40800;52.704;6.398;2024-02-04T15:07:18;11.60;99.90
54898;DHT22;40800;52.704;6.398;2024-02-04T15:09:45;12.30;99.90
54898;DHT22;40800;52.704;6.398;2024-02-04T15:12:11;12.10;99.90
54898;DHT22;40800;52.704;6.398;2024-02-04T15:14:40;11.50;99.90
54898;DHT22;40800;52.704;6.398;2024-02-04T15:17:05;11.80;99.90
54898;DHT22;40800;52.704;6.398;2024-02-04T15:19:31;12.10;99.90
54898;DHT22;40800;52.704;6.398;2024-02-04T15:22:02;11.70;99.90
54898;DHT22;40800;52.704;6.398;2024-02-04T15:24:28;11.60;99.90
54898;DHT22;40800;52.704;6.398;2024-02-04T15:26:54;11.70;99.90
54898;DHT22;40800;52.704;6.398;2024-02-04T15:29:19;12.70;99.90
54898;DHT22;40800;52.704;6.398;2024-02-04T15:31:45;12.70;99.90
54898;DHT22;40800;52.704;6.398;2024-02-04T15:34:15;12.60;99.90
54898;DHT22;40800;52.704;6.398;2024-02-04T15:36:40;11.80;99.90
54898;DHT22;40800;52.704;6.398;2024-02-04T15:39:06;12.80;99.90